Time;durP1;ratioP1;P1;durP2;ratioP2;P2;SDS_P1;SDS_P2;PMS_P1;PMS_P2;Temp;Humidity;BMP_temperature;BMP_pressure;BME280_temperature;BME280_humidity;BME280_pressure;Samples;Min_cycle;Max_cycle;Signal;HPM_P1;HPM_P2
2023/06/23 00:00:20;;;;;;;0.70;0.70;;;23.80;69.80;;;;;;5005042;28;20068;-76
2023/06/23 00:02:45;;;;;;;0.80;0.80;;;23.70;69.70;;;;;;5000091;28;20034;-76
2023/06/23 00:05:11;;;;;;;0.60;0.60;;;23.70;69.70;;;;;;4987015;28;20052;-76
2023/06/23 00:07:37;;;;;;;0.52;0.52;;;23.70;69.70;;;;;;4982530;28;20100;-76
2023/06/23 00:10:05;;;;;;;0.50;0.50;;;23.70;69.80;;;;;;5000679;28;20075;-76
2023/06/23 00:12:35;;;;;;;0.60;0.60;;;23.70;69.80;;;;;;5016681;28;20058;-76
2023/06/23 00:15:02;;;;;;;0.60;0.60;;;23.70;69.60;;;;;;5017955;28;20269;-76
2023/06/23 00:17:29;;;;;;;0.63;0.63;;;23.70;69.60;;;;;;4985706;28;20050;-76
2023/06/23 00:19:54;;;;;;;0.63;0.63;;;23.70;69.60;;;;;;4999044;28;20038;-76
2023/06/23 00:22:20;;;;;;;0.65;0.65;;;23.70;69.60;;;;;;5000986;28;20127;-76
2023/06/23 00:24:45;;;;;;;0.60;0.60;;;23.70;69.60;;;;;;4998822;28;20050;-76
2023/06/23 00:27:11;;;;;;;0.57;0.57;;;23.70;69.60;;;;;;5001092;28;20037;-76
2023/06/23 00:29:37;;;;;;;0.50;0.50;;;23.70;69.60;;;;;;4966730;28;20046;-76
2023/06/23 00:32:02;;;;;;;0.70;0.70;;;23.70;69.70;;;;;;4999631;28;20120;-75
2023/06/23 00:34:28;;;;;;;0.70;0.70;;;23.70;69.50;;;;;;5000267;28;20044;-77
2023/06/23 00:36:54;;;;;;;0.70;0.70;;;23.70;69.50;;;;;;4985879;28;20058;-76
2023/06/23 00:39:20;;;;;;;0.60;0.60;;;23.70;69.40;;;;;;5019513;28;20046;-76
2023/06/23 00:41:45;;;;;;;0.52;0.52;;;23.70;69.50;;;;;;5016472;28;20533;-76
2023/06/23 00:44:11;;;;;;;1.05;0.77;;;23.70;70.30;;;;;;5004381;28;20480;-76
2023/06/23 00:46:37;;;;;;;1.05;0.90;;;23.70;69.50;;;;;;5003286;28;20042;-76
2023/06/23 00:49:03;;;;;;;0.50;0.50;;;23.70;69.40;;;;;;5003173;28;20161;-76
2023/06/23 00:51:30;;;;;;;0.80;0.80;;;23.70;69.50;;;;;;4994576;28;20062;-76
2023/06/23 00:53:56;;;;;;;0.68;0.68;;;23.70;69.50;;;;;;4988647;28;20042;-76
2023/06/23 00:56:24;;;;;;;0.70;0.70;;;23.70;69.60;;;;;;5005075;28;20534;-76
2023/06/23 00:58:50;;;;;;;0.70;0.70;;;23.70;69.50;;;;;;4994197;28;20042;-76
2023/06/23 01:01:15;;;;;;;0.75;0.75;;;23.60;69.40;;;;;;5007510;28;20528;-76
2023/06/23 01:03:41;;;;;;;0.60;0.60;;;23.70;69.60;;;;;;5004741;28;20894;-76
2023/06/23 01:06:24;;;;;;;0.60;0.60;;;23.60;69.30;;;;;;5023124;28;20121;-76
2023/06/23 01:08:58;;;;;;;0.50;0.50;;;23.70;69.40;;;;;;5004037;28;20116;-76
2023/06/23 01:11:28;;;;;;;0.60;0.60;;;23.60;69.30;;;;;;5003675;28;20589;-76
2023/06/23 01:13:57;;;;;;;0.60;0.60;;;23.60;69.20;;;;;;4997167;28;20723;-76
2023/06/23 01:16:33;;;;;;;0.50;0.50;;;23.60;69.20;;;;;;5008013;28;20674;-76
2023/06/23 01:19:19;;;;;;;0.60;0.60;;;23.60;69.30;;;;;;4986433;28;20459;-76
2023/06/23 01:22:00;;;;;;;0.90;0.90;;;23.60;69.30;;;;;;5021472;28;20045;-76
2023/06/23 01:24:38;;;;;;;0.80;0.80;;;23.60;69.30;;;;;;5007669;28;20061;-76
2023/06/23 01:27:25;;;;;;;0.80;0.80;;;23.60;69.40;;;;;;5006232;28;20563;-76
2023/06/23 01:29:52;;;;;;;0.90;0.90;;;23.60;69.50;;;;;;5007812;28;20365;-76
2023/06/23 01:32:30;;;;;;;0.88;0.88;;;23.60;69.40;;;;;;5004429;28;20049;-76
2023/06/23 01:35:05;;;;;;;0.90;0.90;;;23.60;69.60;;;;;;4987147;28;20538;-76
2023/06/23 01:37:35;;;;;;;0.70;0.70;;;23.60;69.50;;;;;;5002127;28;20120;-76
2023/06/23 01:40:14;;;;;;;0.80;0.80;;;23.60;69.50;;;;;;4997449;28;20042;-76
2023/06/23 01:42:45;;;;;;;0.77;0.77;;;23.60;69.50;;;;;;4990755;28;20129;-76
2023/06/23 01:45:11;;;;;;;0.80;0.80;;;23.60;69.40;;;;;;4990791;28;20407;-76
2023/06/23 01:47:38;;;;;;;0.50;0.50;;;23.60;69.40;;;;;;5000942;28;20048;-76
2023/06/23 01:50:05;;;;;;;0.75;0.75;;;23.60;69.50;;;;;;5005353;28;20046;-76
2023/06/23 01:52:33;;;;;;;0.60;0.60;;;23.60;69.50;;;;;;4991189;28;20041;-76
2023/06/23 01:54:59;;;;;;;0.70;0.70;;;23.60;69.70;;;;;;4988819;28;20042;-76
2023/06/23 01:57:25;;;;;;;0.63;0.63;;;23.60;69.50;;;;;;4996861;28;20586;-76
2023/06/23 01:59:50;;;;;;;0.52;0.52;;;23.60;69.60;;;;;;5004491;28;20025;-76
2023/06/23 02:02:16;;;;;;;0.70;0.70;;;23.60;69.50;;;;;;5004869;28;20034;-76
2023/06/23 02:04:42;;;;;;;0.70;0.70;;;23.60;69.40;;;;;;4987069;28;20125;-76
2023/06/23 02:07:10;;;;;;;0.60;0.60;;;23.60;69.40;;;;;;5002632;28;20112;-75
2023/06/23 02:09:35;;;;;;;0.80;0.80;;;23.60;69.40;;;;;;5005633;28;20037;-77
2023/06/23 02:12:03;;;;;;;0.80;0.80;;;23.60;69.50;;;;;;4989146;28;20066;-76
2023/06/23 02:14:28;;;;;;;0.88;0.88;;;23.60;69.40;;;;;;5003266;28;20041;-76
2023/06/23 02:16:54;;;;;;;0.88;0.88;;;23.60;69.40;;;;;;5017830;28;20530;-76
2023/06/23 02:19:20;;;;;;;0.80;0.80;;;23.60;69.40;;;;;;5004973;28;20046;-76
2023/06/23 02:21:45;;;;;;;0.65;0.65;;;23.60;69.40;;;;;;4988376;28;20048;-76
2023/06/23 02:24:11;;;;;;;0.90;0.90;;;23.60;69.40;;;;;;5006744;28;20045;-76
2023/06/23 02:26:37;;;;;;;0.90;0.90;;;23.60;69.50;;;;;;5003584;28;20042;-76
2023/06/23 02:29:03;;;;;;;0.95;0.95;;;23.60;69.40;;;;;;5004691;28;20100;-76
2023/06/23 02:31:29;;;;;;;0.70;0.70;;;23.50;69.40;;;;;;5003652;28;20029;-76
2023/06/23 02:33:56;;;;;;;0.70;0.70;;;23.50;69.50;;;;;;4987787;28;20046;-76
2023/06/23 02:36:22;;;;;;;0.63;0.63;;;23.50;69.40;;;;;;5005380;28;20077;-76
2023/06/23 02:38:49;;;;;;;0.95;0.95;;;23.50;69.40;;;;;;5002312;28;20070;-76
2023/06/23 02:41:15;;;;;;;0.70;0.70;;;23.50;69.40;;;;;;4989910;28;20041;-76
2023/06/23 02:43:50;;;;;;;0.80;0.80;;;23.50;69.40;;;;;;5003533;28;20585;-76
2023/06/23 02:46:17;;;;;;;0.80;0.80;;;23.50;69.40;;;;;;5003664;28;20105;-76
2023/06/23 02:48:43;;;;;;;0.80;0.80;;;23.50;69.50;;;;;;5002812;28;20447;-76
2023/06/23 02:51:10;;;;;;;0.68;0.68;;;23.50;69.50;;;;;;5005929;28;20092;-76
2023/06/23 02:53:40;;;;;;;0.63;0.63;;;23.50;69.40;;;;;;5002246;28;20038;-77
2023/06/23 02:56:07;;;;;;;0.68;0.68;;;23.50;69.40;;;;;;4989060;28;20427;-76
2023/06/23 02:58:32;;;;;;;0.63;0.63;;;23.50;69.50;;;;;;4988912;28;20534;-76
2023/06/23 03:00:58;;;;;;;0.80;0.80;;;23.50;69.50;;;;;;4999959;28;20058;-76
2023/06/23 03:03:24;;;;;;;0.80;0.80;;;23.50;69.40;;;;;;5003151;28;20077;-75
2023/06/23 03:05:49;;;;;;;1.02;1.02;;;23.50;69.60;;;;;;4986075;28;20454;-76
2023/06/23 03:08:15;;;;;;;0.70;0.70;;;23.50;69.60;;;;;;4988908;28;20121;-76
2023/06/23 03:10:41;;;;;;;0.70;0.70;;;23.50;69.60;;;;;;4993786;28;20439;-77
2023/06/23 03:13:07;;;;;;;0.75;0.75;;;23.50;69.50;;;;;;5004800;28;20132;-76
2023/06/23 03:15:33;;;;;;;0.68;0.68;;;23.50;69.50;;;;;;5004006;28;20536;-75
2023/06/23 03:18:05;;;;;;;0.80;0.80;;;23.50;69.50;;;;;;4990877;28;20057;-76
2023/06/23 03:20:50;;;;;;;0.80;0.80;;;23.50;69.40;;;;;;5013882;28;20129;-76
2023/06/23 03:23:15;;;;;;;0.80;0.80;;;23.50;69.50;;;;;;5002850;28;20044;-76
2023/06/23 03:25:43;;;;;;;0.75;0.75;;;23.50;69.50;;;;;;5001769;28;20045;-76
2023/06/23 03:28:09;;;;;;;0.70;0.70;;;23.50;69.40;;;;;;5005364;28;20041;-76
2023/06/23 03:30:40;;;;;;;1.27;1.08;;;23.50;69.50;;;;;;4988066;28;20050;-76
2023/06/23 03:33:21;;;;;;;0.80;0.80;;;23.50;69.50;;;;;;5003667;28;20527;-76
2023/06/23 03:35:46;;;;;;;0.63;0.63;;;23.50;69.50;;;;;;5004507;28;20026;-76
2023/06/23 03:38:15;;;;;;;0.90;0.90;;;23.50;69.50;;;;;;5002533;28;20058;-76
2023/06/23 03:40:58;;;;;;;0.80;0.80;;;23.50;69.40;;;;;;5003039;28;20121;-77
2023/06/23 03:43:31;;;;;;;1.10;1.10;;;23.50;69.50;;;;;;5016989;28;20070;-76
2023/06/23 03:45:59;;;;;;;0.68;0.68;;;23.50;69.50;;;;;;4988022;28;20046;-76
2023/06/23 03:48:26;;;;;;;0.90;0.90;;;23.50;69.50;;;;;;5001901;28;20066;-76
2023/06/23 03:50:52;;;;;;;0.85;0.85;;;23.50;69.50;;;;;;5001630;28;20416;-76
2023/06/23 03:53:17;;;;;;;0.90;0.90;;;23.50;69.50;;;;;;5000203;28;20103;-76
2023/06/23 03:55:43;;;;;;;0.90;0.90;;;23.50;69.60;;;;;;4999663;28;20049;-76
2023/06/23 03:58:08;;;;;;;0.90;0.90;;;23.50;69.50;;;;;;4999337;28;20056;-76
2023/06/23 04:00:35;;;;;;;0.80;0.80;;;23.40;69.50;;;;;;4985538;28;20049;-76
2023/06/23 04:03:01;;;;;;;0.75;0.75;;;23.50;69.60;;;;;;4984461;28;20361;-76
2023/06/23 04:05:29;;;;;;;0.80;0.80;;;23.50;69.60;;;;;;5000758;28;20041;-76
2023/06/23 04:07:55;;;;;;;0.77;0.77;;;23.50;69.60;;;;;;4999343;28;20162;-76
2023/06/23 04:10:20;;;;;;;0.80;0.80;;;23.40;69.50;;;;;;5001425;28;20046;-76
2023/06/23 04:12:46;;;;;;;0.82;0.82;;;23.40;69.50;;;;;;4965920;28;20527;-75
2023/06/23 04:15:12;;;;;;;0.90;0.90;;;23.40;69.50;;;;;;4986345;28;20050;-76
2023/06/23 04:17:38;;;;;;;0.90;0.90;;;23.40;69.60;;;;;;5002638;28;20422;-76
2023/06/23 04:20:05;;;;;;;0.85;0.85;;;23.40;69.50;;;;;;4987098;28;20050;-76
2023/06/23 04:22:30;;;;;;;0.70;0.70;;;23.40;69.60;;;;;;5001144;28;20041;-76
2023/06/23 04:24:56;;;;;;;0.85;0.85;;;23.40;69.60;;;;;;4998695;28;20046;-76
2023/06/23 04:27:22;;;;;;;0.85;0.85;;;23.40;69.50;;;;;;4995477;28;20038;-76
2023/06/23 04:29:48;;;;;;;0.90;0.90;;;23.40;69.60;;;;;;4992019;28;20034;-76
2023/06/23 04:32:15;;;;;;;0.70;0.70;;;23.40;69.50;;;;;;4991668;28;20045;-76
2023/06/23 04:34:42;;;;;;;0.90;0.90;;;23.40;69.60;;;;;;4996461;28;20038;-76
2023/06/23 04:37:10;;;;;;;0.90;0.90;;;23.40;69.50;;;;;;5003391;28;20049;-76
2023/06/23 04:39:48;;;;;;;0.90;0.90;;;23.40;69.50;;;;;;4991363;28;20467;-76
2023/06/23 04:42:14;;;;;;;0.80;0.80;;;23.40;69.60;;;;;;5007164;28;20499;-76
2023/06/23 04:44:43;;;;;;;0.70;0.70;;;23.40;69.60;;;;;;4991119;28;20038;-76
2023/06/23 04:47:09;;;;;;;0.80;0.80;;;23.40;69.60;;;;;;4988522;28;20057;-76
2023/06/23 04:49:34;;;;;;;0.85;0.85;;;23.40;69.50;;;;;;5006271;28;20042;-76
2023/06/23 04:52:02;;;;;;;0.90;0.90;;;23.40;69.50;;;;;;4991798;28;20041;-76
2023/06/23 04:54:39;;;;;;;0.80;0.80;;;23.40;69.60;;;;;;5006729;28;20066;-76
2023/06/23 04:57:06;;;;;;;0.70;0.70;;;23.40;69.50;;;;;;4991815;28;20470;-75
2023/06/23 04:59:33;;;;;;;0.80;0.80;;;23.40;69.60;;;;;;5005070;28;20041;-75
2023/06/23 05:01:59;;;;;;;1.00;1.00;;;23.40;69.50;;;;;;4989750;28;20046;-76
2023/06/23 05:04:25;;;;;;;0.80;0.80;;;23.40;69.60;;;;;;5004001;28;20784;-76
2023/06/23 05:06:50;;;;;;;0.68;0.68;;;23.40;69.50;;;;;;5003643;28;20403;-76
2023/06/23 05:09:16;;;;;;;0.80;0.80;;;23.40;69.60;;;;;;5008160;28;20046;-76
2023/06/23 05:11:41;;;;;;;0.93;0.93;;;23.40;69.60;;;;;;4990177;28;20113;-76
2023/06/23 05:14:07;;;;;;;0.90;0.90;;;23.40;69.60;;;;;;5003795;28;20066;-76
2023/06/23 05:16:32;;;;;;;0.70;0.70;;;23.40;69.50;;;;;;4990363;28;20069;-76
2023/06/23 05:18:58;;;;;;;0.80;0.80;;;23.40;69.50;;;;;;5003023;28;20046;-76
2023/06/23 05:21:24;;;;;;;0.85;0.85;;;23.40;69.60;;;;;;5022619;28;20492;-76
2023/06/23 05:23:51;;;;;;;0.75;0.75;;;23.40;69.60;;;;;;4993454;28;20069;-76
2023/06/23 05:26:17;;;;;;;0.98;0.98;;;23.40;69.50;;;;;;5004243;28;20042;-75
2023/06/23 05:28:43;;;;;;;0.80;0.80;;;23.40;69.50;;;;;;4988074;28;20067;-76
2023/06/23 05:31:08;;;;;;;0.88;0.88;;;23.40;69.60;;;;;;5020894;28;20038;-76
2023/06/23 05:33:37;;;;;;;0.85;0.85;;;23.40;69.60;;;;;;5008485;28;20473;-76
2023/06/23 05:36:03;;;;;;;0.80;0.80;;;23.40;69.60;;;;;;4990768;28;20503;-76
2023/06/23 05:38:29;;;;;;;0.75;0.75;;;23.40;69.60;;;;;;4992019;28;20093;-76
2023/06/23 05:40:55;;;;;;;0.52;0.52;;;23.40;69.60;;;;;;5004047;28;20042;-76
2023/06/23 05:43:20;;;;;;;0.90;0.90;;;23.40;69.50;;;;;;4989729;28;20412;-76
2023/06/23 05:45:46;;;;;;;0.80;0.80;;;23.40;69.50;;;;;;4987651;28;20038;-77
2023/06/23 05:48:16;;;;;;;0.77;0.77;;;23.40;69.50;;;;;;5019771;28;20132;-76
2023/06/23 05:50:41;;;;;;;0.82;0.80;;;23.40;69.50;;;;;;5002952;28;20064;-76
2023/06/23 05:53:09;;;;;;;0.70;0.70;;;23.40;69.50;;;;;;5001896;28;20423;-76
2023/06/23 05:55:38;;;;;;;0.70;0.70;;;23.40;69.60;;;;;;5004415;28;21431;-75
2023/06/23 05:58:06;;;;;;;0.93;0.93;;;23.40;69.60;;;;;;5005379;28;20040;-75
2023/06/23 06:00:38;;;;;;;0.82;0.82;;;23.40;69.60;;;;;;5017860;28;20041;-76
2023/06/23 06:03:06;;;;;;;1.00;1.00;;;23.40;69.50;;;;;;4990086;28;20030;-76
2023/06/23 06:05:32;;;;;;;0.80;0.80;;;23.40;69.60;;;;;;5003431;28;20092;-75
2023/06/23 06:07:57;;;;;;;0.70;0.70;;;23.40;69.50;;;;;;5000919;28;20550;-75
2023/06/23 06:10:23;;;;;;;0.73;0.73;;;23.40;69.50;;;;;;5016926;28;20428;-75
2023/06/23 06:12:49;;;;;;;0.90;0.90;;;23.40;69.50;;;;;;5000899;28;20051;-76
2023/06/23 06:15:14;;;;;;;1.00;1.00;;;23.40;69.50;;;;;;5005159;28;20526;-75
2023/06/23 06:17:40;;;;;;;1.00;1.00;;;23.40;69.50;;;;;;5001096;28;20065;-75
2023/06/23 06:20:06;;;;;;;0.82;0.82;;;23.40;69.50;;;;;;5001588;28;20042;-75
2023/06/23 06:22:34;;;;;;;0.75;0.75;;;23.40;69.60;;;;;;5001424;28;20096;-75
2023/06/23 06:25:00;;;;;;;0.77;0.77;;;23.40;69.50;;;;;;5002478;28;20046;-75
2023/06/23 06:27:26;;;;;;;0.70;0.70;;;23.40;69.50;;;;;;4971782;28;20104;-75
2023/06/23 06:29:52;;;;;;;0.80;0.80;;;23.40;69.50;;;;;;4986698;28;20512;-75
2023/06/23 06:32:18;;;;;;;0.90;0.90;;;23.40;69.50;;;;;;5003524;28;20046;-75
2023/06/23 06:34:43;;;;;;;0.77;0.77;;;23.40;69.50;;;;;;5001304;28;20096;-75
2023/06/23 06:37:09;;;;;;;0.80;0.80;;;23.40;69.40;;;;;;5005790;28;20065;-75
2023/06/23 06:39:34;;;;;;;0.70;0.70;;;23.40;69.50;;;;;;5005131;28;20042;-75
2023/06/23 06:42:00;;;;;;;1.00;1.00;;;23.40;69.50;;;;;;5018497;28;20487;-75
2023/06/23 06:44:25;;;;;;;0.90;0.90;;;23.40;69.50;;;;;;5021632;28;20042;-75
2023/06/23 06:46:51;;;;;;;0.70;0.70;;;23.40;69.40;;;;;;5003715;28;20431;-76
2023/06/23 06:49:18;;;;;;;0.98;0.98;;;23.40;69.40;;;;;;5004304;28;20542;-75
2023/06/23 06:51:44;;;;;;;0.95;0.95;;;23.40;69.40;;;;;;5003228;28;20054;-75
2023/06/23 06:54:09;;;;;;;0.65;0.65;;;23.40;69.40;;;;;;5018280;28;20049;-75
2023/06/23 06:56:35;;;;;;;0.98;0.98;;;23.40;69.40;;;;;;5003525;28;20054;-75
2023/06/23 06:59:00;;;;;;;0.60;0.60;;;23.40;69.40;;;;;;4984421;28;20042;-75
2023/06/23 07:01:26;;;;;;;0.60;0.60;;;23.40;69.40;;;;;;4985498;28;20070;-75
2023/06/23 07:03:52;;;;;;;0.80;0.80;;;23.40;69.40;;;;;;5004556;28;20052;-75
2023/06/23 07:06:18;;;;;;;0.85;0.85;;;23.40;69.40;;;;;;5007136;28;20050;-75
2023/06/23 07:08:43;;;;;;;0.75;0.75;;;23.40;69.30;;;;;;5004626;28;20412;-75
2023/06/23 07:11:10;;;;;;;0.80;0.80;;;23.40;69.30;;;;;;4985978;28;20105;-75
2023/06/23 07:13:36;;;;;;;0.70;0.70;;;23.50;69.40;;;;;;4989371;28;20089;-75
2023/06/23 07:16:01;;;;;;;1.00;1.00;;;23.40;69.50;;;;;;5020013;28;20574;-76
2023/06/23 07:18:28;;;;;;;0.82;0.82;;;23.40;69.50;;;;;;5005523;28;20054;-75
2023/06/23 07:20:54;;;;;;;1.10;1.10;;;23.40;70.10;;;;;;5002380;28;20089;-75
2023/06/23 07:23:19;;;;;;;0.98;0.98;;;23.40;70.10;;;;;;5002722;28;20077;-75
2023/06/23 07:25:45;;;;;;;0.90;0.90;;;23.40;69.40;;;;;;5005173;28;20153;-75
2023/06/23 07:28:10;;;;;;;1.02;1.02;;;23.40;69.30;;;;;;4999697;28;20038;-75
2023/06/23 07:30:37;;;;;;;0.88;0.88;;;23.40;69.20;;;;;;4986770;28;20117;-75
2023/06/23 07:33:03;;;;;;;0.90;0.90;;;23.50;69.30;;;;;;5004560;28;20034;-75
2023/06/23 07:35:28;;;;;;;1.00;1.00;;;23.40;69.20;;;;;;5002683;28;20419;-75
2023/06/23 07:37:54;;;;;;;1.10;1.10;;;23.50;69.20;;;;;;5000011;28;20049;-76
2023/06/23 07:40:19;;;;;;;0.98;0.98;;;23.50;69.20;;;;;;4989274;28;20518;-75
2023/06/23 07:42:45;;;;;;;0.95;0.95;;;23.50;69.20;;;;;;4983831;28;20069;-75
2023/06/23 07:45:10;;;;;;;0.70;0.70;;;23.50;69.30;;;;;;4987412;28;20093;-75
2023/06/23 07:47:36;;;;;;;0.80;0.80;;;23.50;69.20;;;;;;5002451;28;20042;-75
2023/06/23 07:50:02;;;;;;;0.90;0.90;;;23.50;69.00;;;;;;5001889;28;20034;-75
2023/06/23 07:52:29;;;;;;;0.80;0.80;;;23.50;69.00;;;;;;5002600;28;20561;-75
2023/06/23 07:54:54;;;;;;;0.80;0.80;;;23.50;69.00;;;;;;5016796;28;20415;-76
2023/06/23 07:57:21;;;;;;;0.82;0.82;;;23.50;69.00;;;;;;5003544;28;20046;-75
2023/06/23 07:59:47;;;;;;;1.10;1.10;;;23.50;68.90;;;;;;5004968;28;20459;-75
2023/06/23 08:02:13;;;;;;;1.10;1.10;;;23.50;69.00;;;;;;4985569;28;20038;-76
2023/06/23 08:04:38;;;;;;;0.82;0.82;;;23.50;68.90;;;;;;4997916;28;20042;-76
2023/06/23 08:07:04;;;;;;;0.77;0.77;;;23.50;68.90;;;;;;5000083;28;20045;-76
2023/06/23 08:09:30;;;;;;;1.00;1.00;;;23.50;69.20;;;;;;5018411;28;20203;-75
2023/06/23 08:11:56;;;;;;;1.00;1.00;;;23.60;68.90;;;;;;5001669;28;20046;-77
2023/06/23 08:14:21;;;;;;;0.90;0.90;;;23.50;68.80;;;;;;5000495;28;20115;-75
2023/06/23 08:16:47;;;;;;;0.88;0.88;;;23.50;69.10;;;;;;5017561;28;20132;-75
2023/06/23 08:19:13;;;;;;;0.90;0.90;;;23.50;69.00;;;;;;4998999;28;20049;-76
2023/06/23 08:21:38;;;;;;;0.70;0.70;;;23.60;69.80;;;;;;5001594;28;20134;-75
2023/06/23 08:24:04;;;;;;;1.00;1.00;;;23.60;68.90;;;;;;5020469;28;20500;-76
2023/06/23 08:26:30;;;;;;;1.10;1.10;;;23.60;69.00;;;;;;5003576;28;20041;-75
2023/06/23 08:28:55;;;;;;;0.90;0.90;;;23.60;68.60;;;;;;5000313;28;20479;-75
2023/06/23 08:31:22;;;;;;;0.70;0.70;;;23.60;68.60;;;;;;5018060;28;20117;-75
2023/06/23 08:33:47;;;;;;;0.80;0.80;;;23.60;68.60;;;;;;5002028;28;20034;-75
2023/06/23 08:36:13;;;;;;;0.98;0.98;;;23.60;69.30;;;;;;5002830;28;20393;-75
2023/06/23 08:38:38;;;;;;;0.88;0.88;;;23.60;68.50;;;;;;5001556;28;20084;-75
2023/06/23 08:41:05;;;;;;;0.75;0.75;;;23.70;68.80;;;;;;4999429;28;20041;-75
2023/06/23 08:43:31;;;;;;;0.90;0.90;;;23.60;68.50;;;;;;5003325;28;20038;-75
2023/06/23 08:45:58;;;;;;;0.80;0.80;;;23.60;68.40;;;;;;5000131;28;20515;-75
2023/06/23 08:48:30;;;;;;;0.95;0.95;;;23.70;68.50;;;;;;5004717;28;20539;-75
2023/06/23 08:50:57;;;;;;;1.10;1.10;;;23.70;68.50;;;;;;5019431;28;20048;-75
2023/06/23 08:53:23;;;;;;;1.00;1.00;;;23.60;68.40;;;;;;4986736;28;20862;-75
2023/06/23 08:55:49;;;;;;;0.90;0.90;;;23.60;68.30;;;;;;4988066;28;20053;-75
2023/06/23 08:58:17;;;;;;;0.88;0.88;;;23.70;68.50;;;;;;5001796;28;20064;-75
2023/06/23 09:00:42;;;;;;;0.70;0.70;;;23.60;68.80;;;;;;5015569;28;20415;-75
2023/06/23 09:03:08;;;;;;;0.90;0.90;;;23.70;68.40;;;;;;5003054;28;20042;-76
2023/06/23 09:05:34;;;;;;;0.70;0.70;;;23.70;68.40;;;;;;5003376;28;20038;-75
2023/06/23 09:07:59;;;;;;;0.93;0.93;;;23.70;68.40;;;;;;4998834;28;20054;-76
2023/06/23 09:10:25;;;;;;;0.68;0.68;;;23.70;68.50;;;;;;4999675;28;20516;-75
2023/06/23 09:13:24;;;;;;;0.70;0.70;;;23.70;68.30;;;;;;5000246;28;20141;-75
2023/06/23 09:15:50;;;;;;;1.02;1.02;;;23.70;68.40;;;;;;5007648;28;20068;-75
2023/06/23 09:18:15;;;;;;;0.88;0.88;;;23.70;69.10;;;;;;4991732;28;20045;-75
2023/06/23 09:20:46;;;;;;;0.90;0.90;;;23.70;68.30;;;;;;5004642;28;20073;-75
2023/06/23 09:23:18;;;;;;;0.85;0.85;;;23.70;68.40;;;;;;5006705;28;20503;-75
2023/06/23 09:25:48;;;;;;;0.90;0.90;;;23.70;68.30;;;;;;5005913;28;20061;-75
2023/06/23 09:28:26;;;;;;;0.90;0.90;;;23.70;68.30;;;;;;4987750;28;20050;-75
2023/06/23 09:30:53;;;;;;;0.90;0.90;;;23.70;68.30;;;;;;5002778;28;20065;-75
2023/06/23 09:33:19;;;;;;;0.85;0.85;;;23.70;68.20;;;;;;5006216;28;20039;-76
2023/06/23 09:35:49;;;;;;;0.90;0.90;;;23.80;68.20;;;;;;5003736;28;20104;-75
2023/06/23 09:38:17;;;;;;;0.98;0.98;;;23.80;68.30;;;;;;5017538;28;20065;-75
2023/06/23 09:40:43;;;;;;;1.10;1.10;;;23.70;68.10;;;;;;5004929;28;20042;-75
2023/06/23 09:43:08;;;;;;;0.60;0.60;;;23.80;68.20;;;;;;5005561;28;20038;-76
2023/06/23 09:45:34;;;;;;;0.90;0.90;;;23.80;68.20;;;;;;5005662;28;20066;-75
2023/06/23 09:47:59;;;;;;;0.80;0.80;;;23.80;68.20;;;;;;5004508;28;20092;-75
2023/06/23 09:50:27;;;;;;;0.70;0.70;;;23.80;69.00;;;;;;4995826;28;20094;-75
2023/06/23 09:53:05;;;;;;;0.90;0.90;;;23.80;68.10;;;;;;5005927;28;20049;-75
2023/06/23 09:55:31;;;;;;;0.90;0.90;;;23.80;68.90;;;;;;5003311;28;20042;-75
2023/06/23 09:57:58;;;;;;;0.90;0.90;;;23.80;68.10;;;;;;5021554;28;20121;-75
2023/06/23 10:00:30;;;;;;;0.82;0.82;;;23.80;68.00;;;;;;5006661;28;20061;-75
2023/06/23 10:02:58;;;;;;;1.00;1.00;;;23.80;68.10;;;;;;5006381;28;20073;-75
2023/06/23 10:05:24;;;;;;;0.75;0.75;;;23.80;68.00;;;;;;5003389;28;20412;-75
2023/06/23 10:07:49;;;;;;;0.80;0.80;;;23.80;68.10;;;;;;5018689;28;20046;-75
2023/06/23 10:10:15;;;;;;;0.90;0.90;;;23.80;68.00;;;;;;5002394;28;20474;-75
2023/06/23 10:12:41;;;;;;;0.80;0.80;;;23.80;68.00;;;;;;5005235;28;20491;-75
2023/06/23 10:15:08;;;;;;;0.70;0.70;;;23.90;68.10;;;;;;5004082;28;20048;-75
2023/06/23 10:17:34;;;;;;;0.90;0.90;;;23.80;68.00;;;;;;5003479;28;20052;-75
2023/06/23 10:20:00;;;;;;;1.00;1.00;;;23.80;68.00;;;;;;4987193;28;20034;-75
2023/06/23 10:22:25;;;;;;;0.77;0.77;;;23.90;68.10;;;;;;5003155;28;20399;-75
2023/06/23 10:24:52;;;;;;;0.93;0.93;;;23.80;68.00;;;;;;4998888;28;20089;-75
2023/06/23 10:27:28;;;;;;;0.80;0.80;;;23.90;68.00;;;;;;5006351;28;20044;-75
2023/06/23 10:29:55;;;;;;;0.75;0.75;;;23.90;68.60;;;;;;5004685;28;20084;-75
2023/06/23 10:32:28;;;;;;;1.00;1.00;;;23.90;67.90;;;;;;5002482;28;20038;-75
2023/06/23 10:34:59;;;;;;;0.83;0.83;;;23.90;68.00;;;;;;5001338;28;20508;-75
2023/06/23 10:37:26;;;;;;;0.75;0.75;;;23.90;67.90;;;;;;5002594;28;20553;-75
2023/06/23 10:39:56;;;;;;;0.90;0.90;;;23.90;68.00;;;;;;5000508;28;20030;-75
2023/06/23 10:42:22;;;;;;;0.80;0.80;;;23.90;68.00;;;;;;5007504;28;20042;-75
2023/06/23 10:44:48;;;;;;;1.00;1.00;;;23.90;67.90;;;;;;5002993;28;20049;-75
2023/06/23 10:47:14;;;;;;;0.65;0.65;;;23.90;67.90;;;;;;5001505;28;20034;-75
2023/06/23 10:49:39;;;;;;;0.80;0.80;;;24.00;67.90;;;;;;5004201;28;20041;-75
2023/06/23 10:52:05;;;;;;;0.80;0.80;;;23.90;67.90;;;;;;5003938;28;20496;-78
2023/06/23 10:54:30;;;;;;;0.70;0.70;;;24.00;68.00;;;;;;5003785;28;20066;-75
2023/06/23 10:56:56;;;;;;;0.70;0.70;;;24.00;67.90;;;;;;5018487;28;20046;-75
2023/06/23 10:59:23;;;;;;;0.85;0.85;;;24.00;67.80;;;;;;5002372;28;20026;-75
2023/06/23 11:02:02;;;;;;;1.00;1.00;;;24.00;67.90;;;;;;4999271;28;20455;-75
2023/06/23 11:04:32;;;;;;;0.80;0.80;;;24.00;67.80;;;;;;4999285;28;20077;-75
2023/06/23 11:07:24;;;;;;;0.80;0.80;;;24.00;67.80;;;;;;5002812;28;20538;-75
2023/06/23 11:09:58;;;;;;;0.70;0.70;;;24.00;67.80;;;;;;5003537;28;20136;-75
2023/06/23 11:12:34;;;;;;;0.80;0.80;;;24.00;67.80;;;;;;5000168;28;20127;-75
2023/06/23 11:15:05;;;;;;;1.10;1.10;;;24.00;67.80;;;;;;5018115;28;20070;-75
2023/06/23 11:17:48;;;;;;;0.80;0.80;;;24.00;67.80;;;;;;4990869;28;20046;-75
2023/06/23 11:20:23;;;;;;;0.80;0.80;;;24.00;67.80;;;;;;5002234;28;20069;-75
2023/06/23 11:23:04;;;;;;;1.02;1.02;;;24.00;67.80;;;;;;5005016;28;20042;-75
2023/06/23 11:25:50;;;;;;;0.63;0.63;;;24.00;67.80;;;;;;5002019;28;20045;-75
2023/06/23 11:28:22;;;;;;;0.80;0.80;;;24.10;67.80;;;;;;5001722;28;20048;-76
2023/06/23 11:31:08;;;;;;;0.70;0.70;;;24.10;67.80;;;;;;5002918;28;20104;-75
2023/06/23 11:33:35;;;;;;;1.00;1.00;;;24.10;67.80;;;;;;5003200;28;20056;-75
2023/06/23 11:36:03;;;;;;;0.80;0.80;;;24.10;67.80;;;;;;5004256;28;20145;-75
2023/06/23 11:38:28;;;;;;;0.80;0.80;;;24.10;67.70;;;;;;5002590;28;20112;-75
2023/06/23 11:40:55;;;;;;;0.60;0.60;;;24.10;67.60;;;;;;5000651;28;20495;-75
2023/06/23 11:43:21;;;;;;;0.80;0.80;;;24.10;67.70;;;;;;5001274;28;20468;-76
2023/06/23 11:45:55;;;;;;;0.70;0.70;;;24.10;67.70;;;;;;5001914;28;20034;-75
2023/06/23 11:48:22;;;;;;;0.90;0.90;;;24.10;67.70;;;;;;4986437;28;20488;-75
2023/06/23 11:50:48;;;;;;;0.60;0.60;;;24.10;67.70;;;;;;4988230;28;20566;-76
2023/06/23 11:53:14;;;;;;;0.90;0.90;;;24.10;67.60;;;;;;5002751;28;20041;-76
2023/06/23 11:55:41;;;;;;;0.90;0.90;;;24.10;67.60;;;;;;5002278;28;20049;-76
2023/06/23 11:58:06;;;;;;;0.90;0.90;;;24.10;67.60;;;;;;4986926;28;20570;-75
2023/06/23 12:00:32;;;;;;;0.80;0.80;;;24.10;67.50;;;;;;4987116;28;20034;-75
2023/06/23 12:03:00;;;;;;;0.70;0.70;;;24.10;67.60;;;;;;5005285;28;20418;-76
2023/06/23 12:05:27;;;;;;;0.85;0.85;;;24.10;67.70;;;;;;4998350;28;20041;-75
2023/06/23 12:07:54;;;;;;;0.80;0.80;;;24.10;67.60;;;;;;5002150;28;20069;-76
2023/06/23 12:10:20;;;;;;;0.70;0.70;;;24.20;68.50;;;;;;5000053;28;20050;-75
2023/06/23 12:12:48;;;;;;;0.90;0.90;;;24.10;67.80;;;;;;5004785;28;20049;-76
2023/06/23 12:15:14;;;;;;;0.80;0.80;;;24.10;67.80;;;;;;5005001;28;20421;-76
2023/06/23 12:17:43;;;;;;;0.77;0.77;;;24.10;67.80;;;;;;5001728;28;20045;-76
2023/06/23 12:20:09;;;;;;;0.60;0.60;;;24.10;67.90;;;;;;4988336;28;20159;-76
2023/06/23 12:22:36;;;;;;;0.80;0.80;;;24.20;67.90;;;;;;5000339;28;20553;-76
2023/06/23 12:25:02;;;;;;;0.73;0.73;;;24.10;67.90;;;;;;5000144;28;20535;-76
2023/06/23 12:27:29;;;;;;;0.90;0.90;;;24.20;67.90;;;;;;4994979;28;20039;-76
2023/06/23 12:29:55;;;;;;;0.77;0.77;;;24.20;68.00;;;;;;5002526;28;20129;-76
2023/06/23 12:32:27;;;;;;;0.80;0.80;;;24.20;67.90;;;;;;5001826;28;20129;-76
2023/06/23 12:34:54;;;;;;;0.70;0.70;;;24.20;68.00;;;;;;5000724;28;20496;-76
2023/06/23 12:37:20;;;;;;;0.80;0.80;;;24.10;68.70;;;;;;5017250;28;20049;-76
2023/06/23 12:39:52;;;;;;;0.85;0.85;;;24.10;67.90;;;;;;5001440;28;20050;-76
2023/06/23 12:42:19;;;;;;;0.98;0.98;;;24.10;67.90;;;;;;5003652;28;20042;-76
2023/06/23 12:44:45;;;;;;;1.00;1.00;;;24.10;67.80;;;;;;5002236;28;20041;-76
2023/06/23 12:47:11;;;;;;;0.70;0.70;;;24.20;67.80;;;;;;5016009;28;20408;-76
2023/06/23 12:49:37;;;;;;;0.90;0.90;;;24.20;67.90;;;;;;4985914;28;20135;-76